KAKO/AKO METAR and TAF weather

Enter ICAO airport designator
Station Type Date Time Source
KAKO METAR 2024/04/18 06:53 UTC NOAA

KAKO 180653Z AUTO 36014G27KT 3SM -SN BR SCT005 BKN008 OVC013 01/01 A3014 RMK AO2 PK WND 36030/0607 UPE0555RAB0555E0556B13E38SNB38 SLP188 P0001 T00060006 402330006


Station Type Date Time Source
KAKO Decoded METAR 2024/04/18 06:53 UTC NOAA

COLORADO PLAINS REGIONAL, CO, United States (KAKO) 40-10N 103-13W 1421M
Apr 18, 2024 - 02:53 AM EDT / 2024.04.18 0653 UTC
Wind: from the N (360 degrees) at 16 MPH (14 KT) gusting to 31 MPH (27 KT):0
Visibility: 3 mile(s):0
Sky conditions: overcast
Weather: light snow; mist
Precipitation last hour: 0.01 inches
Temperature: 33.1 F (0.6 C)
Windchill: 23 F (-5 C):1
Dew Point: 33.1 F (0.6 C)
Relative Humidity: 100%
Pressure (altimeter): 30.14 in. Hg (1020 hPa)
ob: KAKO 180653Z AUTO 36014G27KT 3SM -SN BR SCT005 BKN008 OVC013 01/01 A3014 RMK AO2 PK WND 36030/0607 UPE0555RAB0555E0556B13E38SNB38 SLP188 P0001 T00060006 402330006
cycle: 7

Station Type Date Time Source
KAKO TAF UTC NOAA

Error!

Example: see airport list